sensor_id;sensor_type;location;lat;lon;timestamp;temperature;humidity
60701;DHT22;46541;49.894;10.886;2023-04-24T00:00:14;13.40;99.90
60701;DHT22;46541;49.894;10.886;2023-04-24T00:02:45;13.40;99.90
60701;DHT22;46541;49.894;10.886;2023-04-24T00:05:15;13.40;99.90
60701;DHT22;46541;49.894;10.886;2023-04-24T00:07:42;13.40;99.90
60701;DHT22;46541;49.894;10.886;2023-04-24T00:10:09;13.40;99.90
60701;DHT22;46541;49.894;10.886;2023-04-24T00:12:37;13.40;99.90
60701;DHT22;46541;49.894;10.886;2023-04-24T00:15:04;13.40;99.90
60701;DHT22;46541;49.894;10.886;2023-04-24T00:17:31;13.40;99.90
60701;DHT22;46541;49.894;10.886;2023-04-24T00:19:58;13.40;99.90
60701;DHT22;46541;49.894;10.886;2023-04-24T00:22:27;13.40;99.90
60701;DHT22;46541;49.894;10.886;2023-04-24T00:24:54;13.40;99.90
60701;DHT22;46541;49.894;10.886;2023-04-24T00:27:21;13.30;99.90
60701;DHT22;46541;49.894;10.886;2023-04-24T00:29:48;13.30;99.90
60701;DHT22;46541;49.894;10.886;2023-04-24T00:32:14;13.30;99.90
60701;DHT22;46541;49.894;10.886;2023-04-24T00:34:41;13.20;99.90
60701;DHT22;46541;49.894;10.886;2023-04-24T00:37:08;13.20;99.90
60701;DHT22;46541;49.894;10.886;2023-04-24T00:39:35;13.20;99.90
60701;DHT22;46541;49.894;10.886;2023-04-24T00:42:02;13.20;99.90
60701;DHT22;46541;49.894;10.886;2023-04-24T00:44:28;13.20;99.90
60701;DHT22;46541;49.894;10.886;2023-04-24T00:46:55;13.20;99.90
60701;DHT22;46541;49.894;10.886;2023-04-24T00:49:22;13.20;99.90
60701;DHT22;46541;49.894;10.886;2023-04-24T00:51:49;13.20;99.90
60701;DHT22;46541;49.894;10.886;2023-04-24T00:54:18;13.20;99.90
60701;DHT22;46541;49.894;10.886;2023-04-24T00:56:44;13.10;99.90
60701;DHT22;46541;49.894;10.886;2023-04-24T00:59:12;13.10;99.90
60701;DHT22;46541;49.894;10.886;2023-04-24T01:01:39;13.10;99.90
60701;DHT22;46541;49.894;10.886;2023-04-24T01:04:10;13.10;99.90
60701;DHT22;46541;49.894;10.886;2023-04-24T01:06:39;13.10;99.90
60701;DHT22;46541;49.894;10.886;2023-04-24T01:09:07;13.10;99.90
60701;DHT22;46541;49.894;10.886;2023-04-24T01:11:37;13.10;99.90
60701;DHT22;46541;49.894;10.886;2023-04-24T01:14:04;13.10;99.90
60701;DHT22;46541;49.894;10.886;2023-04-24T01:16:31;13.10;99.90
60701;DHT22;46541;49.894;10.886;2023-04-24T01:18:57;13.10;99.90
60701;DHT22;46541;49.894;10.886;2023-04-24T01:21:26;13.10;99.90
60701;DHT22;46541;49.894;10.886;2023-04-24T01:23:56;13.10;99.90
60701;DHT22;46541;49.894;10.886;2023-04-24T01:26:23;13.10;99.90
60701;DHT22;46541;49.894;10.886;2023-04-24T01:28:52;13.10;99.90
60701;DHT22;46541;49.894;10.886;2023-04-24T01:31:19;13.10;99.90
60701;DHT22;46541;49.894;10.886;2023-04-24T01:33:47;13.10;99.90
60701;DHT22;46541;49.894;10.886;2023-04-24T01:36:13;13.10;99.90
60701;DHT22;46541;49.894;10.886;2023-04-24T01:38:40;13.10;99.90
60701;DHT22;46541;49.894;10.886;2023-04-24T01:41:07;13.10;99.90
60701;DHT22;46541;49.894;10.886;2023-04-24T01:43:34;13.10;99.90
60701;DHT22;46541;49.894;10.886;2023-04-24T01:46:01;13.10;99.90
60701;DHT22;46541;49.894;10.886;2023-04-24T01:48:28;13.10;99.90
60701;DHT22;46541;49.894;10.886;2023-04-24T01:50:56;13.10;99.90
60701;DHT22;46541;49.894;10.886;2023-04-24T01:53:23;13.10;99.90
60701;DHT22;46541;49.894;10.886;2023-04-24T01:55:49;13.10;99.90
60701;DHT22;46541;49.894;10.886;2023-04-24T01:58:16;13.10;99.90
60701;DHT22;46541;49.894;10.886;2023-04-24T02:00:43;13.10;99.90
60701;DHT22;46541;49.894;10.886;2023-04-24T02:03:09;13.10;99.90
60701;DHT22;46541;49.894;10.886;2023-04-24T02:05:36;13.10;99.90
60701;DHT22;46541;49.894;10.886;2023-04-24T02:08:03;13.10;99.90
60701;DHT22;46541;49.894;10.886;2023-04-24T02:10:30;13.20;99.90
60701;DHT22;46541;49.894;10.886;2023-04-24T02:12:56;13.20;99.90
60701;DHT22;46541;49.894;10.886;2023-04-24T02:15:23;13.10;99.90
60701;DHT22;46541;49.894;10.886;2023-04-24T02:17:50;13.10;99.90
60701;DHT22;46541;49.894;10.886;2023-04-24T02:20:16;13.10;99.90
60701;DHT22;46541;49.894;10.886;2023-04-24T02:22:44;13.10;99.90
60701;DHT22;46541;49.894;10.886;2023-04-24T02:25:10;13.20;99.90
60701;DHT22;46541;49.894;10.886;2023-04-24T02:27:37;13.10;99.90
60701;DHT22;46541;49.894;10.886;2023-04-24T02:30:04;13.10;99.90
60701;DHT22;46541;49.894;10.886;2023-04-24T02:32:31;13.10;99.90
60701;DHT22;46541;49.894;10.886;2023-04-24T02:34:58;13.00;99.90
60701;DHT22;46541;49.894;10.886;2023-04-24T02:37:25;13.10;99.90
60701;DHT22;46541;49.894;10.886;2023-04-24T02:39:52;13.10;99.90
60701;DHT22;46541;49.894;10.886;2023-04-24T02:42:19;13.00;99.90
60701;DHT22;46541;49.894;10.886;2023-04-24T02:44:45;13.10;99.90
60701;DHT22;46541;49.894;10.886;2023-04-24T02:47:12;13.00;99.90
60701;DHT22;46541;49.894;10.886;2023-04-24T02:49:39;12.90;99.90
60701;DHT22;46541;49.894;10.886;2023-04-24T02:52:06;12.90;99.90
60701;DHT22;46541;49.894;10.886;2023-04-24T02:54:32;12.90;99.90
60701;DHT22;46541;49.894;10.886;2023-04-24T02:56:59;12.80;99.90
60701;DHT22;46541;49.894;10.886;2023-04-24T02:59:27;12.80;99.90
60701;DHT22;46541;49.894;10.886;2023-04-24T03:01:55;12.90;99.90
60701;DHT22;46541;49.894;10.886;2023-04-24T03:04:22;12.80;99.90
60701;DHT22;46541;49.894;10.886;2023-04-24T03:06:49;12.80;99.90
60701;DHT22;46541;49.894;10.886;2023-04-24T03:09:18;12.80;99.90
60701;DHT22;46541;49.894;10.886;2023-04-24T03:11:45;12.80;99.90
60701;DHT22;46541;49.894;10.886;2023-04-24T03:14:11;12.80;99.90
60701;DHT22;46541;49.894;10.886;2023-04-24T03:16:38;12.80;99.90
60701;DHT22;46541;49.894;10.886;2023-04-24T03:19:05;12.80;99.90
60701;DHT22;46541;49.894;10.886;2023-04-24T03:21:32;12.80;99.90
60701;DHT22;46541;49.894;10.886;2023-04-24T03:23:58;12.80;99.90
60701;DHT22;46541;49.894;10.886;2023-04-24T03:26:25;12.80;99.90
60701;DHT22;46541;49.894;10.886;2023-04-24T03:28:52;12.80;99.90
60701;DHT22;46541;49.894;10.886;2023-04-24T03:31:18;12.80;99.90
60701;DHT22;46541;49.894;10.886;2023-04-24T03:33:47;12.80;99.90
60701;DHT22;46541;49.894;10.886;2023-04-24T03:36:14;12.80;99.90
60701;DHT22;46541;49.894;10.886;2023-04-24T03:38:40;12.70;99.90
60701;DHT22;46541;49.894;10.886;2023-04-24T03:41:07;12.70;99.90
60701;DHT22;46541;49.894;10.886;2023-04-24T03:43:34;12.70;99.90
60701;DHT22;46541;49.894;10.886;2023-04-24T03:46:01;12.70;99.90
60701;DHT22;46541;49.894;10.886;2023-04-24T03:48:28;12.70;99.90
60701;DHT22;46541;49.894;10.886;2023-04-24T03:50:55;12.70;99.90
60701;DHT22;46541;49.894;10.886;2023-04-24T03:53:22;12.70;99.90
60701;DHT22;46541;49.894;10.886;2023-04-24T03:55:48;12.70;99.90
60701;DHT22;46541;49.894;10.886;2023-04-24T03:58:15;12.60;99.90
60701;DHT22;46541;49.894;10.886;2023-04-24T04:00:42;12.60;99.90
60701;DHT22;46541;49.894;10.886;2023-04-24T04:03:10;12.60;99.90
60701;DHT22;46541;49.894;10.886;2023-04-24T04:05:37;12.60;99.90
60701;DHT22;46541;49.894;10.886;2023-04-24T04:08:04;12.60;99.90
60701;DHT22;46541;49.894;10.886;2023-04-24T04:10:31;12.60;99.90
60701;DHT22;46541;49.894;10.886;2023-04-24T04:12:57;12.60;99.90
60701;DHT22;46541;49.894;10.886;2023-04-24T04:15:24;12.60;99.90
60701;DHT22;46541;49.894;10.886;2023-04-24T04:17:51;12.60;99.90
60701;DHT22;46541;49.894;10.886;2023-04-24T04:20:18;12.60;99.90
60701;DHT22;46541;49.894;10.886;2023-04-24T04:22:44;12.60;99.90
60701;DHT22;46541;49.894;10.886;2023-04-24T04:25:11;12.60;99.90
60701;DHT22;46541;49.894;10.886;2023-04-24T04:27:39;12.60;99.90
60701;DHT22;46541;49.894;10.886;2023-04-24T04:30:08;12.60;99.90
60701;DHT22;46541;49.894;10.886;2023-04-24T04:32:36;12.60;99.90
60701;DHT22;46541;49.894;10.886;2023-04-24T04:35:04;12.60;99.90
60701;DHT22;46541;49.894;10.886;2023-04-24T04:37:31;12.60;99.90
60701;DHT22;46541;49.894;10.886;2023-04-24T04:40:00;12.60;99.90
60701;DHT22;46541;49.894;10.886;2023-04-24T04:42:27;12.60;99.90
60701;DHT22;46541;49.894;10.886;2023-04-24T04:44:54;12.60;99.90
60701;DHT22;46541;49.894;10.886;2023-04-24T04:47:24;12.60;99.90
60701;DHT22;46541;49.894;10.886;2023-04-24T04:49:50;12.60;99.90
60701;DHT22;46541;49.894;10.886;2023-04-24T04:52:18;12.70;99.90
60701;DHT22;46541;49.894;10.886;2023-04-24T04:54:45;12.70;99.90
60701;DHT22;46541;49.894;10.886;2023-04-24T04:57:12;12.70;99.90
60701;DHT22;46541;49.894;10.886;2023-04-24T04:59:39;12.70;99.90
60701;DHT22;46541;49.894;10.886;2023-04-24T05:02:09;12.70;99.90
60701;DHT22;46541;49.894;10.886;2023-04-24T05:04:36;12.70;99.90
60701;DHT22;46541;49.894;10.886;2023-04-24T05:07:03;12.80;99.90
60701;DHT22;46541;49.894;10.886;2023-04-24T05:09:29;12.90;99.90
60701;DHT22;46541;49.894;10.886;2023-04-24T05:11:56;12.90;99.90
60701;DHT22;46541;49.894;10.886;2023-04-24T05:14:23;13.00;99.90
60701;DHT22;46541;49.894;10.886;2023-04-24T05:16:49;13.00;99.90
60701;DHT22;46541;49.894;10.886;2023-04-24T05:19:16;13.00;99.90
60701;DHT22;46541;49.894;10.886;2023-04-24T05:21:43;13.00;99.90
60701;DHT22;46541;49.894;10.886;2023-04-24T05:24:09;13.00;99.90
60701;DHT22;46541;49.894;10.886;2023-04-24T05:26:36;13.00;99.90
60701;DHT22;46541;49.894;10.886;2023-04-24T05:29:03;12.90;99.90
60701;DHT22;46541;49.894;10.886;2023-04-24T05:31:30;12.90;99.90
60701;DHT22;46541;49.894;10.886;2023-04-24T05:33:57;13.10;99.90
60701;DHT22;46541;49.894;10.886;2023-04-24T05:36:24;13.10;99.90
60701;DHT22;46541;49.894;10.886;2023-04-24T05:38:50;13.10;99.90
60701;DHT22;46541;49.894;10.886;2023-04-24T05:41:17;13.10;99.90
60701;DHT22;46541;49.894;10.886;2023-04-24T05:43:44;13.20;99.90
60701;DHT22;46541;49.894;10.886;2023-04-24T05:46:11;13.20;99.90
60701;DHT22;46541;49.894;10.886;2023-04-24T05:48:38;13.20;99.90
60701;DHT22;46541;49.894;10.886;2023-04-24T05:51:05;13.20;99.90
60701;DHT22;46541;49.894;10.886;2023-04-24T05:53:31;13.20;99.90
60701;DHT22;46541;49.894;10.886;2023-04-24T05:55:58;13.20;99.90
60701;DHT22;46541;49.894;10.886;2023-04-24T05:58:25;13.20;99.90
60701;DHT22;46541;49.894;10.886;2023-04-24T06:00:52;13.30;99.90
60701;DHT22;46541;49.894;10.886;2023-04-24T06:03:18;13.30;99.90
60701;DHT22;46541;49.894;10.886;2023-04-24T06:05:45;13.30;99.90
60701;DHT22;46541;49.894;10.886;2023-04-24T06:08:13;13.30;99.90
60701;DHT22;46541;49.894;10.886;2023-04-24T06:10:40;13.20;99.90
60701;DHT22;46541;49.894;10.886;2023-04-24T06:13:06;13.00;99.90
60701;DHT22;46541;49.894;10.886;2023-04-24T06:15:33;12.90;99.90
60701;DHT22;46541;49.894;10.886;2023-04-24T06:18:00;12.80;99.90
60701;DHT22;46541;49.894;10.886;2023-04-24T06:20:27;12.70;99.90
60701;DHT22;46541;49.894;10.886;2023-04-24T06:22:54;12.80;99.90
60701;DHT22;46541;49.894;10.886;2023-04-24T06:25:21;12.60;99.90
60701;DHT22;46541;49.894;10.886;2023-04-24T06:27:47;12.60;99.90
60701;DHT22;46541;49.894;10.886;2023-04-24T06:30:14;12.60;99.90
60701;DHT22;46541;49.894;10.886;2023-04-24T06:32:41;12.60;99.90
60701;DHT22;46541;49.894;10.886;2023-04-24T06:35:08;12.60;99.90
60701;DHT22;46541;49.894;10.886;2023-04-24T06:37:36;12.70;99.90
60701;DHT22;46541;49.894;10.886;2023-04-24T06:40:03;12.70;99.90
60701;DHT22;46541;49.894;10.886;2023-04-24T06:42:32;12.70;99.90
60701;DHT22;46541;49.894;10.886;2023-04-24T06:44:59;12.70;99.90
60701;DHT22;46541;49.894;10.886;2023-04-24T06:47:26;12.80;99.90
60701;DHT22;46541;49.894;10.886;2023-04-24T06:49:53;12.90;99.90
60701;DHT22;46541;49.894;10.886;2023-04-24T06:52:19;13.00;99.90
60701;DHT22;46541;49.894;10.886;2023-04-24T06:54:46;13.10;99.90
60701;DHT22;46541;49.894;10.886;2023-04-24T06:57:13;13.10;99.90
60701;DHT22;46541;49.894;10.886;2023-04-24T06:59:40;13.10;99.90
60701;DHT22;46541;49.894;10.886;2023-04-24T07:02:07;13.20;99.90
60701;DHT22;46541;49.894;10.886;2023-04-24T07:04:34;13.30;99.90
60701;DHT22;46541;49.894;10.886;2023-04-24T07:07:02;13.30;99.90
60701;DHT22;46541;49.894;10.886;2023-04-24T07:09:29;13.30;99.90
60701;DHT22;46541;49.894;10.886;2023-04-24T07:11:56;13.50;99.90
60701;DHT22;46541;49.894;10.886;2023-04-24T07:14:23;13.60;99.90
60701;DHT22;46541;49.894;10.886;2023-04-24T07:16:50;13.30;99.90
60701;DHT22;46541;49.894;10.886;2023-04-24T07:19:16;13.40;99.90
60701;DHT22;46541;49.894;10.886;2023-04-24T07:21:43;13.50;99.90
60701;DHT22;46541;49.894;10.886;2023-04-24T07:24:10;13.60;99.90
60701;DHT22;46541;49.894;10.886;2023-04-24T07:26:38;13.70;99.90
60701;DHT22;46541;49.894;10.886;2023-04-24T07:29:08;13.80;99.90
60701;DHT22;46541;49.894;10.886;2023-04-24T07:31:34;13.60;99.90
60701;DHT22;46541;49.894;10.886;2023-04-24T07:34:01;13.70;99.90
60701;DHT22;46541;49.894;10.886;2023-04-24T07:36:28;13.70;99.90
60701;DHT22;46541;49.894;10.886;2023-04-24T07:38:55;13.80;99.90
60701;DHT22;46541;49.894;10.886;2023-04-24T07:41:23;13.80;99.90
60701;DHT22;46541;49.894;10.886;2023-04-24T07:43:51;13.80;99.90
60701;DHT22;46541;49.894;10.886;2023-04-24T07:46:19;13.70;99.90
60701;DHT22;46541;49.894;10.886;2023-04-24T07:48:46;13.70;99.90
60701;DHT22;46541;49.894;10.886;2023-04-24T07:51:24;14.00;99.90
60701;DHT22;46541;49.894;10.886;2023-04-24T07:53:52;14.20;99.90
60701;DHT22;46541;49.894;10.886;2023-04-24T07:56:20;14.30;99.90
60701;DHT22;46541;49.894;10.886;2023-04-24T07:58:47;14.60;99.90
60701;DHT22;46541;49.894;10.886;2023-04-24T08:01:13;14.80;99.90
60701;DHT22;46541;49.894;10.886;2023-04-24T08:03:40;15.30;99.90
60701;DHT22;46541;49.894;10.886;2023-04-24T08:06:09;15.40;99.90
60701;DHT22;46541;49.894;10.886;2023-04-24T08:08:35;15.60;99.10
60701;DHT22;46541;49.894;10.886;2023-04-24T08:11:02;15.40;98.50
60701;DHT22;46541;49.894;10.886;2023-04-24T08:13:29;15.50;98.50
60701;DHT22;46541;49.894;10.886;2023-04-24T08:15:56;15.60;98.50
60701;DHT22;46541;49.894;10.886;2023-04-24T08:18:23;15.70;98.30
60701;DHT22;46541;49.894;10.886;2023-04-24T08:20:50;15.70;98.20
60701;DHT22;46541;49.894;10.886;2023-04-24T08:23:17;15.50;98.70
60701;DHT22;46541;49.894;10.886;2023-04-24T08:25:44;15.50;98.90
60701;DHT22;46541;49.894;10.886;2023-04-24T08:28:11;16.00;97.80
60701;DHT22;46541;49.894;10.886;2023-04-24T08:30:37;16.60;96.00
60701;DHT22;46541;49.894;10.886;2023-04-24T08:33:05;16.60;94.70
60701;DHT22;46541;49.894;10.886;2023-04-24T08:35:31;16.50;94.10
60701;DHT22;46541;49.894;10.886;2023-04-24T08:37:58;16.30;94.30
60701;DHT22;46541;49.894;10.886;2023-04-24T08:40:27;15.90;95.20
60701;DHT22;46541;49.894;10.886;2023-04-24T08:42:59;15.60;95.90
60701;DHT22;46541;49.894;10.886;2023-04-24T08:45:26;15.30;96.40
60701;DHT22;46541;49.894;10.886;2023-04-24T08:47:53;15.10;96.80
60701;DHT22;46541;49.894;10.886;2023-04-24T08:50:23;15.20;97.10
60701;DHT22;46541;49.894;10.886;2023-04-24T08:52:51;15.30;96.80
60701;DHT22;46541;49.894;10.886;2023-04-24T08:55:24;14.60;97.30
60701;DHT22;46541;49.894;10.886;2023-04-24T08:57:52;14.60;98.10
60701;DHT22;46541;49.894;10.886;2023-04-24T09:00:20;14.70;97.90
60701;DHT22;46541;49.894;10.886;2023-04-24T09:02:49;14.80;97.40
60701;DHT22;46541;49.894;10.886;2023-04-24T09:05:17;14.70;97.70
60701;DHT22;46541;49.894;10.886;2023-04-24T09:07:48;14.70;97.40
60701;DHT22;46541;49.894;10.886;2023-04-24T09:10:15;14.50;96.80
60701;DHT22;46541;49.894;10.886;2023-04-24T09:12:44;14.40;97.70
60701;DHT22;46541;49.894;10.886;2023-04-24T09:15:11;14.50;97.60
60701;DHT22;46541;49.894;10.886;2023-04-24T09:17:38;14.60;97.70
60701;DHT22;46541;49.894;10.886;2023-04-24T09:20:06;14.80;97.50
60701;DHT22;46541;49.894;10.886;2023-04-24T09:22:33;15.10;96.90
60701;DHT22;46541;49.894;10.886;2023-04-24T09:25:08;15.30;96.70
60701;DHT22;46541;49.894;10.886;2023-04-24T09:27:35;15.40;95.70
60701;DHT22;46541;49.894;10.886;2023-04-24T09:30:03;15.40;95.50
60701;DHT22;46541;49.894;10.886;2023-04-24T09:32:30;15.40;95.80
60701;DHT22;46541;49.894;10.886;2023-04-24T09:35:11;15.00;95.30
60701;DHT22;46541;49.894;10.886;2023-04-24T09:37:43;14.70;96.60
60701;DHT22;46541;49.894;10.886;2023-04-24T09:40:11;14.60;96.70
60701;DHT22;46541;49.894;10.886;2023-04-24T09:42:45;14.70;97.20
60701;DHT22;46541;49.894;10.886;2023-04-24T09:45:12;14.60;97.40
60701;DHT22;46541;49.894;10.886;2023-04-24T09:47:41;14.40;97.90
60701;DHT22;46541;49.894;10.886;2023-04-24T09:50:16;14.40;97.60
60701;DHT22;46541;49.894;10.886;2023-04-24T09:52:56;14.50;97.50
60701;DHT22;46541;49.894;10.886;2023-04-24T09:55:24;14.70;97.20
60701;DHT22;46541;49.894;10.886;2023-04-24T09:57:53;15.00;97.30
60701;DHT22;46541;49.894;10.886;2023-04-24T10:00:39;15.30;96.20
60701;DHT22;46541;49.894;10.886;2023-04-24T10:03:06;15.40;96.30
60701;DHT22;46541;49.894;10.886;2023-04-24T10:05:36;15.50;96.20
60701;DHT22;46541;49.894;10.886;2023-04-24T10:10:33;15.60;95.80
60701;DHT22;46541;49.894;10.886;2023-04-24T10:13:00;15.50;96.50
60701;DHT22;46541;49.894;10.886;2023-04-24T10:15:27;15.20;96.60
60701;DHT22;46541;49.894;10.886;2023-04-24T10:17:54;15.10;97.30
60701;DHT22;46541;49.894;10.886;2023-04-24T10:20:26;14.80;97.90
60701;DHT22;46541;49.894;10.886;2023-04-24T10:22:53;14.40;98.10
60701;DHT22;46541;49.894;10.886;2023-04-24T10:25:29;14.40;98.60
60701;DHT22;46541;49.894;10.886;2023-04-24T10:27:58;14.60;98.70
60701;DHT22;46541;49.894;10.886;2023-04-24T10:30:28;14.70;97.80
60701;DHT22;46541;49.894;10.886;2023-04-24T10:32:55;15.00;97.10
60701;DHT22;46541;49.894;10.886;2023-04-24T10:35:23;15.30;96.40
60701;DHT22;46541;49.894;10.886;2023-04-24T10:38:23;15.60;95.70
60701;DHT22;46541;49.894;10.886;2023-04-24T10:40:51;15.90;94.70
60701;DHT22;46541;49.894;10.886;2023-04-24T10:43:18;16.00;93.50
60701;DHT22;46541;49.894;10.886;2023-04-24T10:46:01;16.00;93.10
60701;DHT22;46541;49.894;10.886;2023-04-24T10:48:29;16.20;92.20
60701;DHT22;46541;49.894;10.886;2023-04-24T10:50:56;16.50;91.10
60701;DHT22;46541;49.894;10.886;2023-04-24T10:53:29;16.60;90.90
60701;DHT22;46541;49.894;10.886;2023-04-24T10:56:05;16.60;91.20
60701;DHT22;46541;49.894;10.886;2023-04-24T10:58:40;17.10;90.30
60701;DHT22;46541;49.894;10.886;2023-04-24T11:01:07;17.10;89.90
60701;DHT22;46541;49.894;10.886;2023-04-24T11:03:35;16.70;90.10
60701;DHT22;46541;49.894;10.886;2023-04-24T11:06:08;16.60;90.60
60701;DHT22;46541;49.894;10.886;2023-04-24T11:08:45;16.30;90.10
60701;DHT22;46541;49.894;10.886;2023-04-24T11:11:15;15.90;91.10
60701;DHT22;46541;49.894;10.886;2023-04-24T11:21:45;15.50;93.00
60701;DHT22;46541;49.894;10.886;2023-04-24T11:24:32;15.60;93.10
60701;DHT22;46541;49.894;10.886;2023-04-24T11:27:21;16.00;92.60
60701;DHT22;46541;49.894;10.886;2023-04-24T11:29:52;15.80;92.50
60701;DHT22;46541;49.894;10.886;2023-04-24T11:34:58;15.40;92.60
60701;DHT22;46541;49.894;10.886;2023-04-24T11:37:38;15.60;92.60
60701;DHT22;46541;49.894;10.886;2023-04-24T11:40:07;15.90;92.00
60701;DHT22;46541;49.894;10.886;2023-04-24T11:42:35;16.00;91.90
60701;DHT22;46541;49.894;10.886;2023-04-24T11:45:11;16.40;92.20
60701;DHT22;46541;49.894;10.886;2023-04-24T11:47:38;16.70;90.00
60701;DHT22;46541;49.894;10.886;2023-04-24T11:50:08;16.80;87.60
60701;DHT22;46541;49.894;10.886;2023-04-24T11:52:40;17.20;87.60
60701;DHT22;46541;49.894;10.886;2023-04-24T11:55:29;17.40;84.60
60701;DHT22;46541;49.894;10.886;2023-04-24T11:57:57;17.60;83.60
60701;DHT22;46541;49.894;10.886;2023-04-24T12:00:29;17.60;83.10
60701;DHT22;46541;49.894;10.886;2023-04-24T12:03:10;17.50;83.60
60701;DHT22;46541;49.894;10.886;2023-04-24T12:05:39;17.20;84.40
60701;DHT22;46541;49.894;10.886;2023-04-24T12:08:06;16.70;85.10
60701;DHT22;46541;49.894;10.886;2023-04-24T12:10:35;16.50;85.50
60701;DHT22;46541;49.894;10.886;2023-04-24T12:13:02;16.30;86.00
60701;DHT22;46541;49.894;10.886;2023-04-24T12:15:29;16.30;87.60
60701;DHT22;46541;49.894;10.886;2023-04-24T12:17:56;16.20;89.60
60701;DHT22;46541;49.894;10.886;2023-04-24T12:20:26;16.30;89.10
60701;DHT22;46541;49.894;10.886;2023-04-24T12:22:58;16.20;89.50
60701;DHT22;46541;49.894;10.886;2023-04-24T12:25:27;16.30;88.30
60701;DHT22;46541;49.894;10.886;2023-04-24T12:30:31;16.90;87.80
60701;DHT22;46541;49.894;10.886;2023-04-24T12:32:59;16.90;87.60
60701;DHT22;46541;49.894;10.886;2023-04-24T12:35:28;17.00;87.60
60701;DHT22;46541;49.894;10.886;2023-04-24T12:37:55;17.10;87.30
60701;DHT22;46541;49.894;10.886;2023-04-24T12:40:25;16.40;90.50
60701;DHT22;46541;49.894;10.886;2023-04-24T12:42:52;16.30;90.50
60701;DHT22;46541;49.894;10.886;2023-04-24T12:45:21;16.60;90.20
60701;DHT22;46541;49.894;10.886;2023-04-24T12:47:49;16.50;89.40
60701;DHT22;46541;49.894;10.886;2023-04-24T12:50:16;16.40;89.90
60701;DHT22;46541;49.894;10.886;2023-04-24T12:52:44;16.20;89.90
60701;DHT22;46541;49.894;10.886;2023-04-24T12:55:11;15.90;90.30
60701;DHT22;46541;49.894;10.886;2023-04-24T12:57:39;15.70;90.50
60701;DHT22;46541;49.894;10.886;2023-04-24T13:00:07;15.70;90.70
60701;DHT22;46541;49.894;10.886;2023-04-24T13:02:34;15.90;90.10
60701;DHT22;46541;49.894;10.886;2023-04-24T13:05:02;16.10;89.50
60701;DHT22;46541;49.894;10.886;2023-04-24T13:07:29;16.30;88.30
60701;DHT22;46541;49.894;10.886;2023-04-24T13:09:56;16.40;89.80
60701;DHT22;46541;49.894;10.886;2023-04-24T13:12:26;16.50;88.00
60701;DHT22;46541;49.894;10.886;2023-04-24T13:14:53;16.10;88.70
60701;DHT22;46541;49.894;10.886;2023-04-24T13:17:20;15.70;89.80
60701;DHT22;46541;49.894;10.886;2023-04-24T13:19:50;15.70;90.90
60701;DHT22;46541;49.894;10.886;2023-04-24T13:22:17;15.90;90.30
60701;DHT22;46541;49.894;10.886;2023-04-24T13:24:47;15.70;90.90
60701;DHT22;46541;49.894;10.886;2023-04-24T13:27:16;16.00;91.50
60701;DHT22;46541;49.894;10.886;2023-04-24T13:29:46;16.20;90.60
60701;DHT22;46541;49.894;10.886;2023-04-24T13:32:13;16.10;91.20
60701;DHT22;46541;49.894;10.886;2023-04-24T13:34:40;15.90;90.90
60701;DHT22;46541;49.894;10.886;2023-04-24T13:37:07;16.00;90.10
60701;DHT22;46541;49.894;10.886;2023-04-24T13:39:34;16.10;90.30
60701;DHT22;46541;49.894;10.886;2023-04-24T13:42:01;15.80;89.60
60701;DHT22;46541;49.894;10.886;2023-04-24T13:44:30;15.70;88.90
60701;DHT22;46541;49.894;10.886;2023-04-24T13:46:58;15.70;90.30
60701;DHT22;46541;49.894;10.886;2023-04-24T13:49:25;15.60;89.90
60701;DHT22;46541;49.894;10.886;2023-04-24T13:51:53;15.50;90.20
60701;DHT22;46541;49.894;10.886;2023-04-24T13:54:20;15.30;90.30
60701;DHT22;46541;49.894;10.886;2023-04-24T13:56:47;15.10;90.70
60701;DHT22;46541;49.894;10.886;2023-04-24T13:59:14;15.00;91.10
60701;DHT22;46541;49.894;10.886;2023-04-24T14:01:40;14.90;91.50
60701;DHT22;46541;49.894;10.886;2023-04-24T14:04:07;14.80;92.00
60701;DHT22;46541;49.894;10.886;2023-04-24T14:06:34;14.70;92.10
60701;DHT22;46541;49.894;10.886;2023-04-24T14:09:01;14.70;93.40
60701;DHT22;46541;49.894;10.886;2023-04-24T14:11:28;14.80;93.90
60701;DHT22;46541;49.894;10.886;2023-04-24T14:13:55;14.90;95.20
60701;DHT22;46541;49.894;10.886;2023-04-24T14:16:25;14.80;96.30
60701;DHT22;46541;49.894;10.886;2023-04-24T14:18:51;14.90;98.00
60701;DHT22;46541;49.894;10.886;2023-04-24T14:21:18;14.60;99.90
60701;DHT22;46541;49.894;10.886;2023-04-24T14:23:45;14.60;99.90
60701;DHT22;46541;49.894;10.886;2023-04-24T14:26:12;14.60;99.90
60701;DHT22;46541;49.894;10.886;2023-04-24T14:28:42;14.60;99.90
60701;DHT22;46541;49.894;10.886;2023-04-24T14:31:09;14.50;99.90
60701;DHT22;46541;49.894;10.886;2023-04-24T14:33:36;14.40;99.90
60701;DHT22;46541;49.894;10.886;2023-04-24T14:36:02;14.40;99.90
60701;DHT22;46541;49.894;10.886;2023-04-24T14:38:30;14.40;99.90
60701;DHT22;46541;49.894;10.886;2023-04-24T14:40:58;14.40;99.90
60701;DHT22;46541;49.894;10.886;2023-04-24T14:43:33;14.30;99.90
60701;DHT22;46541;49.894;10.886;2023-04-24T14:46:02;14.40;99.90
60701;DHT22;46541;49.894;10.886;2023-04-24T14:48:29;14.40;99.90
60701;DHT22;46541;49.894;10.886;2023-04-24T14:50:56;14.50;99.90
60701;DHT22;46541;49.894;10.886;2023-04-24T14:53:23;14.50;99.90
60701;DHT22;46541;49.894;10.886;2023-04-24T14:55:50;14.70;99.90
60701;DHT22;46541;49.894;10.886;2023-04-24T14:58:16;14.80;99.90
60701;DHT22;46541;49.894;10.886;2023-04-24T15:00:43;15.20;99.90
60701;DHT22;46541;49.894;10.886;2023-04-24T15:03:10;15.30;99.90
60701;DHT22;46541;49.894;10.886;2023-04-24T15:05:37;15.50;99.90
60701;DHT22;46541;49.894;10.886;2023-04-24T15:08:04;15.50;99.90
60701;DHT22;46541;49.894;10.886;2023-04-24T15:10:31;15.40;99.90
60701;DHT22;46541;49.894;10.886;2023-04-24T15:12:58;15.20;99.90
60701;DHT22;46541;49.894;10.886;2023-04-24T15:15:25;15.00;99.90
60701;DHT22;46541;49.894;10.886;2023-04-24T15:17:52;14.90;99.90
60701;DHT22;46541;49.894;10.886;2023-04-24T15:20:19;14.80;99.90
60701;DHT22;46541;49.894;10.886;2023-04-24T15:22:46;14.70;99.90
60701;DHT22;46541;49.894;10.886;2023-04-24T15:25:12;14.60;99.90
60701;DHT22;46541;49.894;10.886;2023-04-24T15:27:43;14.30;99.90
60701;DHT22;46541;49.894;10.886;2023-04-24T15:30:10;14.10;99.90
60701;DHT22;46541;49.894;10.886;2023-04-24T15:32:38;13.90;99.90
60701;DHT22;46541;49.894;10.886;2023-04-24T15:35:05;13.80;99.90